Autopride — CQQE — position and weather

sailwx.info

Track history (hours):
 
Tides and Currents Weather Stations Pressure Air Temp Water Temp Dewpoint Dewpoint Depression Visibility Wind Speed Wind Dir Waves Ship Positions

Autopride

Last reported at 2014-Nov-20 23:12 UTC. Time now 2014-Nov-23 14:31 UTC.
Position N 36°42' E 000°45'.

Length 125 m; draft 5.5 m.

Type: Cargo ship. MMSI: 255801560.

Date/timePositionNaut miles runAvg speedWind from/ knotsBaromVisibWave heightAir tempDewpointWater temp
2014-Nov-20 23:12N 36°42' E 000°45'2411.6
2014-Nov-20 21:09N 36°39' E 000°16'711.4
2014-Nov-20 20:33N 36°37' E 000°07'1111.2
2014-Nov-20 19:33N 36°36' W 000°06'1111.2
2014-Nov-20 18:33N 36°34' W 000°20'1111.0
2014-Nov-20 17:33N 36°32' W 000°34'1211.6
2014-Nov-20 16:32N 36°30' W 000°48'1711.2
2014-Nov-20 15:03N 36°27' W 001°09'20311.0
2014-Nov-19 20:33N 35°59' W 005°18'24110.0
2014-Nov-18 20:32N 37°46' W 009°48'1212.1
2014-Nov-18 19:33N 37°58' W 009°52'  
2014-Nov-16 13:28N 38°02' W 009°40'1010.8
2014-Nov-16 12:33N 37°52' W 009°37'1110.8
2014-Nov-16 11:34N 37°42' W 009°34'1111.1
2014-Nov-16 10:32N 37°31' W 009°30'4611.4
2014-Nov-16 06:30N 36°47' W 009°13'18312.2
2014-Nov-15 15:33N 35°58' W 005°35'1111.0
2014-Nov-15 14:33N 36°02' W 005°22'1010.1
2014-Nov-15 13:33N 36°03' W 005°09'  
Track history (hours):
 
Tides and Currents Weather Stations Pressure Air Temp Water Temp Dewpoint Dewpoint Depression Visibility Wind Speed Wind Dir Waves Ship Positions

Autopride

Last reported at 2014-Nov-20 23:12 UTC. Time now 2014-Nov-23 14:31 UTC.
Position N 36°42' E 000°45'.

Length 125 m; draft 5.5 m.

Type: Cargo ship. MMSI: 255801560.

Date/timePositionNaut miles runAvg speedWind from/ knotsBaromVisibWave heightAir tempDewpointWater temp
2014-Nov-20 23:12N 36°42' E 000°45'2411.6
2014-Nov-20 21:09N 36°39' E 000°16'711.4
2014-Nov-20 20:33N 36°37' E 000°07'1111.2
2014-Nov-20 19:33N 36°36' W 000°06'1111.2
2014-Nov-20 18:33N 36°34' W 000°20'1111.0
2014-Nov-20 17:33N 36°32' W 000°34'1211.6
2014-Nov-20 16:32N 36°30' W 000°48'1711.2
2014-Nov-20 15:03N 36°27' W 001°09'20311.0
2014-Nov-19 20:33N 35°59' W 005°18'24110.0
2014-Nov-18 20:32N 37°46' W 009°48'1212.1
2014-Nov-18 19:33N 37°58' W 009°52'  
2014-Nov-16 13:28N 38°02' W 009°40'1010.8
2014-Nov-16 12:33N 37°52' W 009°37'1110.8
2014-Nov-16 11:34N 37°42' W 009°34'1111.1
2014-Nov-16 10:32N 37°31' W 009°30'4611.4
2014-Nov-16 06:30N 36°47' W 009°13'18312.2
2014-Nov-15 15:33N 35°58' W 005°35'1111.0
2014-Nov-15 14:33N 36°02' W 005°22'1010.1
2014-Nov-15 13:33N 36°03' W 005°09'  

Dump ship's entire track history